Time;durP1;ratioP1;P1;durP2;ratioP2;P2;SDS_P1;SDS_P2;PMS_P1;PMS_P2;Temp;Humidity;BMP_temperature;BMP_pressure;BME280_temperature;BME280_humidity;BME280_pressure;Samples;Min_cycle;Max_cycle;Signal;HPM_P1;HPM_P2
2022/08/11 00:01:50;;;;;;;7.90;2.88;;;;;;;;;;5000841;28;20050;-78
2022/08/11 00:04:19;;;;;;;4.65;2.80;;;;;;;;;;5004392;28;20047;-76
2022/08/11 00:06:49;;;;;;;4.35;2.70;;;;;;;;;;5000107;28;20051;-76
2022/08/11 00:09:18;;;;;;;6.30;2.65;;;;;;;;;;5010015;28;20053;-76
2022/08/11 00:11:50;;;;;;;5.57;2.80;;;;;;;;;;5005910;28;20050;-78
2022/08/11 00:14:19;;;;;;;5.32;2.67;;;;;;;;;;4997682;28;20055;-76
2022/08/11 00:17:02;;;;;;;5.72;2.90;;;;;;;;;;5004669;28;20936;-76
2022/08/11 00:19:41;;;;;;;4.70;2.65;;;;;;;;;;5000977;28;20051;-77
2022/08/11 00:22:28;;;;;;;5.95;2.70;;;;;;;;;;4998575;28;20058;-78
2022/08/11 00:24:56;;;;;;;6.65;2.60;;;;;;;;;;5003115;28;20061;-78
2022/08/11 00:27:35;;;;;;;4.07;2.45;;;;;;;;;;4996622;28;20061;-77
2022/08/11 00:30:06;;;;;;;6.85;3.33;;;;;;;;;;5003766;28;20055;-77
2022/08/11 00:32:35;;;;;;;4.93;2.97;;;;;;;;;;5000012;28;20047;-77
2022/08/11 00:35:04;;;;;;;4.65;3.25;;;;;;;;;;4998387;28;20072;-77
2022/08/11 00:37:53;;;;;;;6.75;3.05;;;;;;;;;;5002609;28;20522;-77
2022/08/11 00:40:42;;;;;;;7.32;3.10;;;;;;;;;;5001111;28;20110;-77
2022/08/11 00:43:23;;;;;;;4.40;2.65;;;;;;;;;;4992407;28;20089;-77
2022/08/11 00:45:53;;;;;;;11.20;3.08;;;;;;;;;;5002785;28;20055;-76
2022/08/11 00:48:38;;;;;;;5.95;2.95;;;;;;;;;;4998949;28;20050;-77
2022/08/11 00:51:15;;;;;;;5.05;2.90;;;;;;;;;;5003852;28;20145;-77
2022/08/11 00:54:08;;;;;;;4.85;2.75;;;;;;;;;;5000963;28;20051;-77
2022/08/11 00:56:35;;;;;;;5.53;3.10;;;;;;;;;;4966443;28;20055;-77
2022/08/11 00:59:08;;;;;;;5.40;3.05;;;;;;;;;;4968505;28;20051;-76
2022/08/11 01:02:14;;;;;;;6.50;3.03;;;;;;;;;;4959781;28;20681;-77
2022/08/11 01:05:00;;;;;;;7.30;2.90;;;;;;;;;;4957287;28;20051;-77
2022/08/11 01:07:41;;;;;;;6.00;3.08;;;;;;;;;;4960756;28;20267;-77
2022/08/11 01:10:48;;;;;;;7.55;3.25;;;;;;;;;;4962180;28;20063;-77
2022/08/11 01:13:36;;;;;;;6.65;3.30;;;;;;;;;;4964316;28;20791;-77
2022/08/11 01:16:11;;;;;;;9.77;3.50;;;;;;;;;;4958741;28;20059;-77
2022/08/11 01:18:53;;;;;;;4.13;2.65;;;;;;;;;;4961939;28;20054;-77
2022/08/11 01:21:28;;;;;;;7.07;3.05;;;;;;;;;;4966258;28;20062;-77
2022/08/11 01:24:14;;;;;;;5.40;3.40;;;;;;;;;;4964119;28;20135;-77
2022/08/11 01:27:00;;;;;;;6.85;3.40;;;;;;;;;;4940824;28;20075;-77
2022/08/11 01:29:33;;;;;;;7.28;3.63;;;;;;;;;;4963521;28;20051;-77
2022/08/11 01:32:08;;;;;;;7.30;3.42;;;;;;;;;;4965404;28;20134;-77
2022/08/11 01:34:47;;;;;;;6.40;3.42;;;;;;;;;;4996567;28;20082;-77
2022/08/11 01:37:44;;;;;;;7.90;3.25;;;;;;;;;;4994896;28;20054;-76
2022/08/11 01:40:34;;;;;;;5.35;3.28;;;;;;;;;;4943125;28;20471;-77
2022/08/11 01:46:19;;;;;;;4.70;3.20;;;;;;;;;;4910193;29;20053;-77
2022/08/11 01:48:56;;;;;;;7.05;3.60;;;;;;;;;;4908797;29;20166;-76
2022/08/11 01:51:23;;;;;;;6.32;3.40;;;;;;;;;;4909156;29;20048;-76
2022/08/11 01:54:04;;;;;;;6.68;3.55;;;;;;;;;;4910114;29;20849;-76
2022/08/11 01:56:47;;;;;;;7.03;3.53;;;;;;;;;;4910832;29;20052;-77
2022/08/11 01:59:14;;;;;;;4.93;3.30;;;;;;;;;;4910324;29;20053;-77
2022/08/11 02:01:51;;;;;;;6.57;3.53;;;;;;;;;;4910291;29;20048;-77
2022/08/11 02:04:25;;;;;;;5.78;3.38;;;;;;;;;;4912808;29;20060;-76
2022/08/11 02:07:02;;;;;;;6.93;3.47;;;;;;;;;;4910467;29;20249;-76
2022/08/11 02:09:54;;;;;;;6.45;3.30;;;;;;;;;;4909745;29;20060;-76
2022/08/11 02:12:26;;;;;;;6.18;3.20;;;;;;;;;;4910165;29;20056;-78
2022/08/11 02:15:11;;;;;;;10.70;3.33;;;;;;;;;;4894877;29;20052;-76
2022/08/11 02:17:53;;;;;;;7.47;3.30;;;;;;;;;;4941647;28;20054;-76
2022/08/11 02:23:46;;;;;;;5.18;3.30;;;;;;;;;;4995878;28;20055;-76
2022/08/11 02:26:35;;;;;;;6.90;3.47;;;;;;;;;;4993340;28;20062;-76
2022/08/11 02:29:02;;;;;;;5.40;3.28;;;;;;;;;;4995249;28;20057;-76
2022/08/11 02:34:44;;;;;;;8.52;3.60;;;;;;;;;;4990665;28;20066;-76
2022/08/11 02:37:32;;;;;;;5.18;3.50;;;;;;;;;;4993168;28;20059;-76
2022/08/11 02:40:09;;;;;;;7.30;3.60;;;;;;;;;;4996026;28;20054;-76
2022/08/11 02:42:50;;;;;;;5.05;3.50;;;;;;;;;;4995287;28;20054;-77
2022/08/11 02:45:31;;;;;;;6.82;3.50;;;;;;;;;;4992137;28;20055;-76
2022/08/11 02:50:55;;;;;;;7.60;3.40;;;;;;;;;;4996961;28;20214;-76
2022/08/11 02:53:28;;;;;;;6.95;3.60;;;;;;;;;;4991785;28;20055;-76
2022/08/11 02:56:07;;;;;;;9.35;4.07;;;;;;;;;;4991937;28;20066;-77
2022/08/11 02:58:41;;;;;;;6.65;3.75;;;;;;;;;;4994830;28;20057;-76
2022/08/11 03:01:10;;;;;;;5.97;3.67;;;;;;;;;;5009324;28;20046;-76
2022/08/11 03:04:07;;;;;;;6.32;3.78;;;;;;;;;;5004161;28;20051;-76
2022/08/11 03:06:35;;;;;;;7.95;3.90;;;;;;;;;;4993438;28;20055;-76
2022/08/11 03:09:08;;;;;;;6.00;3.72;;;;;;;;;;4991794;28;20883;-77
2022/08/11 03:17:42;;;;;;;5.47;3.40;;;;;;;;;;4992389;28;20058;-76
2022/08/11 03:20:15;;;;;;;4.70;3.40;;;;;;;;;;4997952;28;20917;-76
2022/08/11 03:23:01;;;;;;;4.72;3.30;;;;;;;;;;4994109;28;20042;-79
2022/08/11 03:25:45;;;;;;;7.93;3.40;;;;;;;;;;4989654;28;20047;-76
2022/08/11 03:28:34;;;;;;;4.85;3.30;;;;;;;;;;4993306;28;20489;-76
2022/08/11 03:31:08;;;;;;;5.95;3.22;;;;;;;;;;5001498;28;21136;-78
2022/08/11 03:34:02;;;;;;;7.82;3.72;;;;;;;;;;4997979;28;20786;-78
2022/08/11 03:36:52;;;;;;;5.40;3.40;;;;;;;;;;4992133;28;20063;-78
2022/08/11 03:39:48;;;;;;;6.93;3.47;;;;;;;;;;4998891;28;20051;-79
2022/08/11 03:42:43;;;;;;;6.05;3.50;;;;;;;;;;4993447;28;20054;-78
2022/08/11 03:45:19;;;;;;;9.73;3.83;;;;;;;;;;5011906;28;22987;-78
2022/08/11 03:47:57;;;;;;;6.35;3.55;;;;;;;;;;4993988;28;20047;-78
2022/08/11 03:50:43;;;;;;;4.82;3.47;;;;;;;;;;4995698;28;20529;-78
2022/08/11 03:53:29;;;;;;;4.82;3.25;;;;;;;;;;4990255;28;20046;-78
2022/08/11 03:56:13;;;;;;;4.03;2.50;;;;;;;;;;4992452;28;20050;-77
2022/08/11 03:58:51;;;;;;;4.13;2.60;;;;;;;;;;5011085;28;20105;-77
2022/08/11 04:01:45;;;;;;;6.30;3.08;;;;;;;;;;4999447;28;20058;-77
2022/08/11 04:04:31;;;;;;;6.40;3.08;;;;;;;;;;4996348;28;20055;-78
2022/08/11 04:07:01;;;;;;;4.78;3.13;;;;;;;;;;4992342;28;20058;-77
2022/08/11 04:09:47;;;;;;;24.58;11.40;;;;;;;;;;4989672;28;20055;-77
2022/08/11 04:12:24;;;;;;;8.93;4.57;;;;;;;;;;4997216;28;20171;-77
2022/08/11 04:18:15;;;;;;;5.65;3.92;;;;;;;;;;4994261;28;20068;-77
2022/08/11 04:21:04;;;;;;;8.75;3.45;;;;;;;;;;4996783;28;20055;-77
2022/08/11 04:24:05;;;;;;;5.60;3.72;;;;;;;;;;5001230;28;20054;-76
2022/08/11 04:26:55;;;;;;;7.47;3.70;;;;;;;;;;4987783;28;20524;-76
2022/08/11 04:29:23;;;;;;;7.47;3.35;;;;;;;;;;4993622;28;20070;-76
2022/08/11 04:32:02;;;;;;;4.20;2.75;;;;;;;;;;4995782;28;20149;-78
2022/08/11 04:34:32;;;;;;;5.43;3.17;;;;;;;;;;4991557;28;20137;-77
2022/08/11 04:37:33;;;;;;;5.63;2.83;;;;;;;;;;4998802;28;20110;-78
2022/08/11 04:40:18;;;;;;;6.90;3.35;;;;;;;;;;4995788;28;20082;-78
2022/08/11 04:43:23;;;;;;;8.38;3.28;;;;;;;;;;5000141;28;20086;-84
2022/08/11 04:46:02;;;;;;;12.50;2.90;;;;;;;;;;5002001;28;20057;-81
2022/08/11 05:07:14;;;;;;;4.60;3.20;;;;;;;;;;5010221;28;20058;-81
2022/08/11 05:09:41;;;;;;;7.70;3.63;;;;;;;;;;5000226;28;20497;-82
2022/08/11 05:12:29;;;;;;;6.47;3.78;;;;;;;;;;5003566;28;20145;-81
2022/08/11 05:35:02;;;;;;;8.18;3.95;;;;;;;;;;4992577;28;20522;-80
2022/08/11 05:37:31;;;;;;;6.13;4.25;;;;;;;;;;4994981;28;20513;-78
2022/08/11 05:57:31;;;;;;;10.27;5.40;;;;;;;;;;5002493;28;20058;-78
2022/08/11 06:00:23;;;;;;;10.90;5.57;;;;;;;;;;5012435;28;20134;-76
2022/08/11 06:02:54;;;;;;;9.63;6.00;;;;;;;;;;4999632;28;20054;-77
2022/08/11 06:05:22;;;;;;;8.40;6.18;;;;;;;;;;5003248;28;20133;-77
2022/08/11 06:07:53;;;;;;;9.15;5.80;;;;;;;;;;4996335;28;20046;-76
2022/08/11 06:10:29;;;;;;;10.53;6.17;;;;;;;;;;5001298;28;20081;-76
2022/08/11 06:12:59;;;;;;;8.00;5.45;;;;;;;;;;5008022;28;20095;-77
2022/08/11 06:15:27;;;;;;;10.05;5.50;;;;;;;;;;5001212;28;20058;-76
2022/08/11 06:17:55;;;;;;;13.15;5.88;;;;;;;;;;5001119;28;20061;-76
2022/08/11 06:20:24;;;;;;;8.95;5.35;;;;;;;;;;5011548;28;20046;-76
2022/08/11 06:22:58;;;;;;;7.78;5.13;;;;;;;;;;5006550;28;20636;-76
2022/08/11 06:25:35;;;;;;;9.25;5.22;;;;;;;;;;4995656;28;20129;-76
2022/08/11 06:28:03;;;;;;;7.32;5.05;;;;;;;;;;4991890;28;20058;-76
2022/08/11 06:30:41;;;;;;;9.18;5.65;;;;;;;;;;5009593;28;20084;-77
2022/08/11 06:33:13;;;;;;;10.18;5.45;;;;;;;;;;4998514;28;20051;-78
2022/08/11 06:35:59;;;;;;;14.43;5.00;;;;;;;;;;4996937;28;20069;-76
2022/08/11 06:38:41;;;;;;;12.70;5.65;;;;;;;;;;5015663;28;20069;-76
2022/08/11 06:41:30;;;;;;;9.93;5.33;;;;;;;;;;4997936;28;20805;-76
2022/08/11 06:44:16;;;;;;;7.15;5.15;;;;;;;;;;4997055;28;20123;-77
2022/08/11 06:46:46;;;;;;;17.00;5.28;;;;;;;;;;4998864;28;20059;-76
2022/08/11 06:52:09;;;;;;;10.23;5.03;;;;;;;;;;5001802;28;20556;-76
2022/08/11 06:55:05;;;;;;;12.80;5.30;;;;;;;;;;5000677;28;20046;-76
2022/08/11 07:00:41;;;;;;;15.30;4.88;;;;;;;;;;4996639;28;20054;-76
2022/08/11 07:03:10;;;;;;;9.13;4.70;;;;;;;;;;5007526;28;20053;-76
2022/08/11 07:05:47;;;;;;;10.40;5.18;;;;;;;;;;5002306;28;20788;-76
2022/08/11 07:17:01;;;;;;;10.10;5.20;;;;;;;;;;4999919;28;20051;-77
2022/08/11 07:31:06;;;;;;;10.52;4.50;;;;;;;;;;4985112;28;20047;-77
2022/08/11 07:33:48;;;;;;;9.18;4.65;;;;;;;;;;4983116;28;20848;-76
2022/08/11 07:36:38;;;;;;;9.68;4.20;;;;;;;;;;4976859;28;20059;-77
2022/08/11 07:39:11;;;;;;;10.50;4.25;;;;;;;;;;4979388;28;20069;-77
2022/08/11 07:41:38;;;;;;;8.27;3.88;;;;;;;;;;4985924;28;20061;-76
2022/08/11 07:44:10;;;;;;;8.27;3.70;;;;;;;;;;4984993;28;20154;-76
2022/08/11 07:52:29;;;;;;;7.60;3.80;;;;;;;;;;4983115;28;20051;-76
2022/08/11 07:54:58;;;;;;;14.07;3.85;;;;;;;;;;4983799;28;20124;-77
2022/08/11 08:17:51;;;;;;;11.07;2.50;;;;;;;;;;4984107;28;20066;-77
2022/08/11 08:20:49;;;;;;;7.13;2.30;;;;;;;;;;4988564;28;20070;-77
2022/08/11 08:23:33;;;;;;;4.72;2.20;;;;;;;;;;4983946;28;20054;-78
2022/08/11 08:26:03;;;;;;;7.80;2.20;;;;;;;;;;4987714;28;20061;-77
2022/08/11 08:28:30;;;;;;;9.15;2.22;;;;;;;;;;4985352;28;20062;-77
2022/08/11 08:30:59;;;;;;;9.70;2.72;;;;;;;;;;4979405;28;20054;-77
2022/08/11 08:33:31;;;;;;;14.55;2.58;;;;;;;;;;4986478;28;20066;-78
2022/08/11 08:36:10;;;;;;;11.20;2.67;;;;;;;;;;4989703;28;20059;-77
2022/08/11 08:38:40;;;;;;;3.40;2.05;;;;;;;;;;5001721;28;20125;-77
2022/08/11 08:41:08;;;;;;;5.70;2.47;;;;;;;;;;4998634;28;20054;-77
2022/08/11 08:43:39;;;;;;;8.75;2.55;;;;;;;;;;5000513;28;20504;-77
2022/08/11 08:46:18;;;;;;;8.15;2.65;;;;;;;;;;5000824;28;20514;-77
2022/08/11 08:48:46;;;;;;;11.68;3.38;;;;;;;;;;5001436;28;20105;-77
2022/08/11 08:54:26;;;;;;;2.33;1.90;;;;;;;;;;5005448;28;20058;-77
2022/08/11 08:56:56;;;;;;;7.97;2.40;;;;;;;;;;5004208;28;20055;-77
2022/08/11 08:59:27;;;;;;;13.15;2.22;;;;;;;;;;4998778;28;20489;-77
2022/08/11 09:02:14;;;;;;;5.60;2.50;;;;;;;;;;4997708;28;20149;-78
2022/08/11 09:04:44;;;;;;;5.32;2.15;;;;;;;;;;5006926;28;20090;-77
2022/08/11 09:07:14;;;;;;;9.52;2.55;;;;;;;;;;5002430;28;20038;-76
2022/08/11 09:09:47;;;;;;;11.18;2.40;;;;;;;;;;5009252;28;20054;-77
2022/08/11 09:12:15;;;;;;;6.35;2.40;;;;;;;;;;4998725;28;20058;-77
2022/08/11 09:15:06;;;;;;;7.20;2.90;;;;;;;;;;4999847;28;20050;-78
2022/08/11 09:17:44;;;;;;;4.30;2.25;;;;;;;;;;5003869;28;20051;-78
2022/08/11 09:20:21;;;;;;;10.38;2.70;;;;;;;;;;5003867;28;20081;-77
2022/08/11 09:28:57;;;;;;;8.95;2.47;;;;;;;;;;5007772;28;20054;-77
2022/08/11 09:31:26;;;;;;;8.15;2.78;;;;;;;;;;5002487;28;20058;-77
2022/08/11 09:33:54;;;;;;;8.73;2.63;;;;;;;;;;5002267;28;20046;-75
2022/08/11 09:42:02;;;;;;;7.68;2.30;;;;;;;;;;5003540;28;20059;-76
2022/08/11 09:44:51;;;;;;;12.48;2.33;;;;;;;;;;5015922;28;20050;-77
2022/08/11 09:47:31;;;;;;;11.27;2.90;;;;;;;;;;4997688;28;20508;-76
2022/08/11 09:49:59;;;;;;;6.55;2.47;;;;;;;;;;5001275;28;20058;-76
2022/08/11 09:52:29;;;;;;;4.63;2.20;;;;;;;;;;4998568;28;20120;-76
2022/08/11 09:55:03;;;;;;;10.90;2.30;;;;;;;;;;5013265;28;20531;-76
2022/08/11 10:00:17;;;;;;;10.52;2.28;;;;;;;;;;4996986;28;20057;-78
2022/08/11 10:02:48;;;;;;;7.68;2.22;;;;;;;;;;5009894;28;20039;-76
2022/08/11 10:08:04;;;;;;;10.20;2.38;;;;;;;;;;5000084;28;20143;-77
2022/08/11 10:10:34;;;;;;;10.80;2.67;;;;;;;;;;5001633;28;20149;-77
2022/08/11 10:13:06;;;;;;;4.63;2.45;;;;;;;;;;5007797;28;20082;-78
2022/08/11 10:15:58;;;;;;;16.73;2.53;;;;;;;;;;5002941;28;20054;-76
2022/08/11 10:18:51;;;;;;;4.50;2.25;;;;;;;;;;5005093;28;20061;-77
2022/08/11 10:21:36;;;;;;;9.05;2.38;;;;;;;;;;5006351;28;20056;-78
2022/08/11 10:26:54;;;;;;;4.05;2.42;;;;;;;;;;5008471;28;20054;-76
2022/08/11 10:35:25;;;;;;;6.35;2.17;;;;;;;;;;5003407;28;20913;-79
2022/08/11 10:37:53;;;;;;;6.50;2.30;;;;;;;;;;5000780;28;20137;-76
2022/08/11 10:40:35;;;;;;;3.60;2.17;;;;;;;;;;4995051;28;20066;-78
2022/08/11 10:43:06;;;;;;;4.75;1.83;;;;;;;;;;5003565;28;20108;-76
2022/08/11 10:48:24;;;;;;;4.60;2.03;;;;;;;;;;4996566;28;20051;-77
2022/08/11 10:59:18;;;;;;;3.58;1.80;;;;;;;;;;5001100;28;20085;-77
2022/08/11 11:01:45;;;;;;;5.85;1.92;;;;;;;;;;4997540;28;20056;-76
2022/08/11 11:04:22;;;;;;;9.40;2.10;;;;;;;;;;5010506;28;20059;-77
2022/08/11 11:06:50;;;;;;;4.35;1.90;;;;;;;;;;4996973;28;20072;-77
2022/08/11 11:09:32;;;;;;;4.82;1.92;;;;;;;;;;5002831;28;20046;-77
2022/08/11 11:17:56;;;;;;;7.68;2.00;;;;;;;;;;4996632;28;20054;-76
2022/08/11 11:20:25;;;;;;;3.55;1.92;;;;;;;;;;4998930;28;20145;-76
2022/08/11 11:23:15;;;;;;;5.70;1.67;;;;;;;;;;4985671;28;20061;-76
2022/08/11 11:26:11;;;;;;;5.13;1.60;;;;;;;;;;4996030;28;20059;-76
2022/08/11 11:28:41;;;;;;;5.07;1.98;;;;;;;;;;4992153;28;20173;-76
2022/08/11 11:31:23;;;;;;;4.00;1.80;;;;;;;;;;5009108;28;20054;-75
2022/08/11 11:34:00;;;;;;;7.07;1.80;;;;;;;;;;4995785;28;20058;-75
2022/08/11 11:36:45;;;;;;;3.50;1.90;;;;;;;;;;5001566;28;20110;-75
2022/08/11 11:39:12;;;;;;;4.05;1.85;;;;;;;;;;5000902;28;20062;-75
2022/08/11 11:41:41;;;;;;;3.47;1.88;;;;;;;;;;4993494;28;20046;-76
2022/08/11 11:44:11;;;;;;;8.60;2.30;;;;;;;;;;4999787;28;20258;-78
2022/08/11 11:46:39;;;;;;;4.60;1.73;;;;;;;;;;5004310;28;20532;-76
2022/08/11 11:49:09;;;;;;;7.22;1.70;;;;;;;;;;4999634;28;20182;-75
2022/08/11 11:51:44;;;;;;;4.85;2.22;;;;;;;;;;4997870;28;20086;-76
2022/08/11 11:54:16;;;;;;;3.55;2.00;;;;;;;;;;5001721;28;20580;-76
2022/08/11 11:56:44;;;;;;;3.03;1.60;;;;;;;;;;4999585;28;20046;-76
2022/08/11 12:02:00;;;;;;;2.53;1.60;;;;;;;;;;4996196;28;20039;-76
2022/08/11 12:04:40;;;;;;;3.97;1.70;;;;;;;;;;5000045;28;20058;-76
2022/08/11 12:09:58;;;;;;;3.10;1.80;;;;;;;;;;5003077;28;20098;-76
2022/08/11 12:15:18;;;;;;;5.60;1.77;;;;;;;;;;5006027;28;20052;-77
2022/08/11 12:18:09;;;;;;;3.72;1.80;;;;;;;;;;5006447;28;20055;-76
2022/08/11 12:20:37;;;;;;;3.10;2.00;;;;;;;;;;5008642;28;20141;-76
2022/08/11 12:28:56;;;;;;;7.13;2.13;;;;;;;;;;5000104;28;20505;-77
2022/08/11 12:31:30;;;;;;;6.10;2.17;;;;;;;;;;4996755;28;20042;-76
2022/08/11 12:34:04;;;;;;;4.10;2.00;;;;;;;;;;5000254;28;20058;-76
2022/08/11 12:36:47;;;;;;;3.05;1.80;;;;;;;;;;5007587;28;20066;-76
2022/08/11 12:39:19;;;;;;;2.67;1.73;;;;;;;;;;5001522;28;20097;-75
2022/08/11 12:45:26;;;;;;;3.00;1.80;;;;;;;;;;4995916;28;20137;-77
2022/08/11 12:53:54;;;;;;;3.38;1.75;;;;;;;;;;5001384;28;20084;-75
2022/08/11 13:05:12;;;;;;;9.00;2.00;;;;;;;;;;5005198;28;20141;-75
2022/08/11 13:07:44;;;;;;;4.18;1.95;;;;;;;;;;5006563;28;20039;-77
2022/08/11 13:13:08;;;;;;;5.20;2.10;;;;;;;;;;5001533;28;20134;-75
2022/08/11 13:15:58;;;;;;;2.90;1.80;;;;;;;;;;5003844;28;20054;-76
2022/08/11 13:18:26;;;;;;;4.03;1.80;;;;;;;;;;4998816;28;20990;-76
2022/08/11 13:20:57;;;;;;;3.97;1.90;;;;;;;;;;5014173;28;20101;-77
2022/08/11 13:23:28;;;;;;;4.68;1.77;;;;;;;;;;5005475;28;20175;-75
2022/08/11 13:25:55;;;;;;;2.65;1.73;;;;;;;;;;5014885;28;20061;-75
2022/08/11 13:28:23;;;;;;;9.38;1.70;;;;;;;;;;5007001;28;20050;-75
2022/08/11 13:33:44;;;;;;;5.57;2.00;;;;;;;;;;5007875;28;20051;-76
2022/08/11 13:36:12;;;;;;;4.43;1.83;;;;;;;;;;5009175;28;20039;-75
2022/08/11 13:38:41;;;;;;;2.22;1.85;;;;;;;;;;5006829;28;20051;-77
2022/08/11 13:44:07;;;;;;;5.22;1.80;;;;;;;;;;5001479;28;20054;-76
2022/08/11 13:46:35;;;;;;;4.40;1.60;;;;;;;;;;5008719;28;20085;-75
2022/08/11 13:49:02;;;;;;;4.40;1.75;;;;;;;;;;4995479;28;20067;-76
2022/08/11 13:51:30;;;;;;;3.90;1.92;;;;;;;;;;5011547;28;20047;-76
2022/08/11 13:54:08;;;;;;;3.05;1.73;;;;;;;;;;5001010;28;20058;-75
2022/08/11 13:56:38;;;;;;;4.70;1.60;;;;;;;;;;5003553;28;20049;-77
2022/08/11 13:59:07;;;;;;;4.70;1.58;;;;;;;;;;5002324;28;20050;-76
2022/08/11 14:01:40;;;;;;;2.53;1.70;;;;;;;;;;5004341;28;20050;-76
2022/08/11 14:04:32;;;;;;;2.13;1.58;;;;;;;;;;5005327;28;20101;-76
2022/08/11 14:07:02;;;;;;;7.55;1.60;;;;;;;;;;5004399;28;20856;-76
2022/08/11 14:09:34;;;;;;;9.15;1.70;;;;;;;;;;5003587;28;20154;-76
2022/08/11 14:15:02;;;;;;;3.40;1.60;;;;;;;;;;5003737;28;20149;-75
2022/08/11 14:17:35;;;;;;;2.75;1.60;;;;;;;;;;5012692;28;20081;-77
2022/08/11 14:20:16;;;;;;;3.75;1.60;;;;;;;;;;5003269;28;20054;-75
2022/08/11 14:23:09;;;;;;;6.63;1.80;;;;;;;;;;4999564;28;20054;-76
2022/08/11 14:26:22;;;;;;;4.78;1.77;;;;;;;;;;5007101;28;20109;-75
2022/08/11 14:28:28;;;;;;;3.90;1.73;;;;;;;;;;5004082;28;20051;-75
2022/08/11 14:31:07;;;;;;;5.30;1.77;;;;;;;;;;5005261;28;20927;-77
2022/08/11 14:33:34;;;;;;;3.78;1.90;;;;;;;;;;5003949;28;20050;-76
2022/08/11 14:36:25;;;;;;;3.35;1.70;;;;;;;;;;5001547;28;20051;-75
2022/08/11 14:38:56;;;;;;;4.20;1.70;;;;;;;;;;5008949;28;20046;-75
2022/08/11 14:47:17;;;;;;;5.53;1.85;;;;;;;;;;4999975;28;20061;-77
2022/08/11 14:49:53;;;;;;;5.85;1.77;;;;;;;;;;5002405;28;20133;-76
2022/08/11 14:52:39;;;;;;;7.53;1.80;;;;;;;;;;5003834;28;20050;-77
2022/08/11 14:57:59;;;;;;;5.88;1.70;;;;;;;;;;4997891;28;20054;-75
2022/08/11 15:00:30;;;;;;;6.38;1.60;;;;;;;;;;4998015;28;20050;-75
2022/08/11 15:03:10;;;;;;;6.88;1.70;;;;;;;;;;5009115;28;20488;-76
2022/08/11 15:05:46;;;;;;;8.07;1.67;;;;;;;;;;5004574;28;20058;-77
2022/08/11 15:08:53;;;;;;;4.43;1.70;;;;;;;;;;5002195;28;20069;-76
2022/08/11 15:14:03;;;;;;;3.55;1.65;;;;;;;;;;5004893;28;20039;-76
2022/08/11 15:19:31;;;;;;;4.05;1.50;;;;;;;;;;5007881;28;20061;-77
2022/08/11 15:24:59;;;;;;;2.97;1.60;;;;;;;;;;5000923;28;20126;-76
2022/08/11 15:38:51;;;;;;;3.80;1.90;;;;;;;;;;5004556;28;20057;-76
2022/08/11 15:47:33;;;;;;;7.82;1.63;;;;;;;;;;5003067;28;20146;-75
2022/08/11 15:50:04;;;;;;;3.72;1.52;;;;;;;;;;5003769;28;20114;-78
2022/08/11 15:52:43;;;;;;;4.13;1.73;;;;;;;;;;5006539;28;20776;-76
2022/08/11 15:55:10;;;;;;;4.65;1.55;;;;;;;;;;5005854;28;20046;-76
2022/08/11 16:06:18;;;;;;;3.92;1.63;;;;;;;;;;5003985;28;20105;-78
2022/08/11 16:08:49;;;;;;;2.45;1.70;;;;;;;;;;5003630;28;20051;-77
2022/08/11 16:11:17;;;;;;;6.45;2.00;;;;;;;;;;5006400;28;20050;-77
2022/08/11 16:16:15;;;;;;;7.95;2.33;;;;;;;;;;4998956;28;20038;-78
2022/08/11 16:18:50;;;;;;;13.00;2.03;;;;;;;;;;4999874;28;20046;-77
2022/08/11 16:21:26;;;;;;;6.93;2.00;;;;;;;;;;5002629;28;20061;-77
2022/08/11 16:24:08;;;;;;;6.97;2.25;;;;;;;;;;4998497;28;20143;-78
2022/08/11 16:26:59;;;;;;;4.22;1.60;;;;;;;;;;5008120;28;20055;-76
2022/08/11 16:29:43;;;;;;;3.92;2.00;;;;;;;;;;5000351;28;20141;-76
2022/08/11 16:32:19;;;;;;;4.03;2.10;;;;;;;;;;5008706;28;20058;-76
2022/08/11 16:40:24;;;;;;;8.15;1.50;;;;;;;;;;5005421;28;20051;-78
2022/08/11 16:48:36;;;;;;;4.78;1.92;;;;;;;;;;5008886;28;20057;-77
2022/08/11 16:51:10;;;;;;;2.72;1.70;;;;;;;;;;4996803;28;20117;-78
2022/08/11 16:53:38;;;;;;;1.95;1.55;;;;;;;;;;5003463;28;20061;-77
2022/08/11 16:56:31;;;;;;;5.90;1.67;;;;;;;;;;5003622;28;20081;-77
2022/08/11 16:59:13;;;;;;;2.88;1.52;;;;;;;;;;5001332;28;20046;-77
2022/08/11 17:01:51;;;;;;;7.28;1.90;;;;;;;;;;5003118;28;20119;-78
2022/08/11 17:13:23;;;;;;;4.05;1.73;;;;;;;;;;5000768;28;20150;-76
2022/08/11 17:16:07;;;;;;;4.40;1.80;;;;;;;;;;5005354;28;20943;-77
2022/08/11 17:18:53;;;;;;;4.35;1.70;;;;;;;;;;5009999;28;20139;-77
2022/08/11 17:21:35;;;;;;;3.63;1.70;;;;;;;;;;5004706;28;20035;-77
2022/08/11 17:24:04;;;;;;;4.47;1.75;;;;;;;;;;5003303;28;20081;-78
2022/08/11 17:26:57;;;;;;;2.83;1.70;;;;;;;;;;5005627;28;20058;-79
2022/08/11 17:29:32;;;;;;;5.75;1.55;;;;;;;;;;4999730;28;20071;-77
2022/08/11 17:35:32;;;;;;;3.88;1.90;;;;;;;;;;4999399;28;20057;-78
2022/08/11 17:38:02;;;;;;;6.97;1.48;;;;;;;;;;5002278;28;20054;-78
2022/08/11 17:40:31;;;;;;;4.70;1.65;;;;;;;;;;4996696;28;20050;-77
2022/08/11 17:48:37;;;;;;;3.30;1.40;;;;;;;;;;5005060;28;20059;-76
2022/08/11 17:59:50;;;;;;;2.75;1.48;;;;;;;;;;5010063;28;20102;-76
2022/08/11 17:59:52;;;;;;;3.85;1.70;;;;;;;;;;5005852;28;20117;-77
2022/08/11 18:05:10;;;;;;;5.25;1.67;;;;;;;;;;5009807;28;20133;-77
